Significant Other — WDB7278 — position and weather

sailwx.info

Track history (hours):
 
Tides and Currents Weather Stations Pressure Air Temp Water Temp Dewpoint Dewpoint Depression Visibility Wind Speed Wind Dir Waves Ship Positions

Significant Other

Owner: Miller, Douglas P, Port Orchard, WA. More information available from US FCC via Universal Licensing System and Coast Guard Vessel Documentation Center.

Last reported at 2016-Sep-11 18:33 UTC. Time now 2016-Sep-27 10:29 UTC.
Position N 47°32' W 122°39'.
Warning: this ship's position is 15 days out of date.

Length 13 m.

Type: Sailing vessel. MMSI: 366896730.

Date/timePositionNaut miles runAvg speedWind from/ knotsBaromVisibWave heightAir tempDewpointWater temp
2016-Sep-11 18:33N 47°32' W 122°39'5 0.2
2016-Sep-10 22:32N 47°35' W 122°33'5 4.7
2016-Sep-10 21:34N 47°32' W 122°29'2 1.4
2016-Sep-10 20:29N 47°33' W 122°31'1 1.2
2016-Sep-10 19:33N 47°34' W 122°32'2 0.1
2016-Sep-10 00:33N 47°35' W 122°34'  
2016-Sep-05 23:31N 47°32' W 122°39'2 2.1
2016-Sep-05 22:33N 47°34' W 122°36'4 3.9
2016-Sep-05 21:33N 47°33' W 122°31'9 6.1
2016-Sep-05 20:08N 47°24' W 122°33'3 0.1
2016-Sep-03 19:09N 47°22' W 122°32'8 4.7
2016-Sep-03 17:32N 47°29' W 122°30'5 4.6
2016-Sep-03 16:31N 47°34' W 122°32'2 0.1
2016-Sep-03 01:29N 47°35' W 122°33'5 4.8
2016-Sep-03 00:33N 47°32' W 122°39'0 0.0
2016-Sep-02 01:12N 47°32' W 122°39'0 0.2
2016-Sep-01 23:08N 47°33' W 122°38'0 0.0
2016-Sep-01 22:32N 47°33' W 122°38'0 0.0
2016-Sep-01 21:32N 47°33' W 122°38'0 0.0
2016-Sep-01 20:32N 47°33' W 122°38'0 0.0
2016-Sep-01 19:32N 47°33' W 122°38'  
Track history (hours):
 
Tides and Currents Weather Stations Pressure Air Temp Water Temp Dewpoint Dewpoint Depression Visibility Wind Speed Wind Dir Waves Ship Positions

Significant Other

Owner: Miller, Douglas P, Port Orchard, WA. More information available from US FCC via Universal Licensing System and Coast Guard Vessel Documentation Center.

Last reported at 2016-Sep-11 18:33 UTC. Time now 2016-Sep-27 10:29 UTC.
Position N 47°32' W 122°39'.
Warning: this ship's position is 15 days out of date.

Length 13 m.

Type: Sailing vessel. MMSI: 366896730.

Date/timePositionNaut miles runAvg speedWind from/ knotsBaromVisibWave heightAir tempDewpointWater temp
2016-Sep-11 18:33N 47°32' W 122°39'5 0.2
2016-Sep-10 22:32N 47°35' W 122°33'5 4.7
2016-Sep-10 21:34N 47°32' W 122°29'2 1.4
2016-Sep-10 20:29N 47°33' W 122°31'1 1.2
2016-Sep-10 19:33N 47°34' W 122°32'2 0.1
2016-Sep-10 00:33N 47°35' W 122°34'  
2016-Sep-05 23:31N 47°32' W 122°39'2 2.1
2016-Sep-05 22:33N 47°34' W 122°36'4 3.9
2016-Sep-05 21:33N 47°33' W 122°31'9 6.1
2016-Sep-05 20:08N 47°24' W 122°33'3 0.1
2016-Sep-03 19:09N 47°22' W 122°32'8 4.7
2016-Sep-03 17:32N 47°29' W 122°30'5 4.6
2016-Sep-03 16:31N 47°34' W 122°32'2 0.1
2016-Sep-03 01:29N 47°35' W 122°33'5 4.8
2016-Sep-03 00:33N 47°32' W 122°39'0 0.0
2016-Sep-02 01:12N 47°32' W 122°39'0 0.2
2016-Sep-01 23:08N 47°33' W 122°38'0 0.0
2016-Sep-01 22:32N 47°33' W 122°38'0 0.0
2016-Sep-01 21:32N 47°33' W 122°38'0 0.0
2016-Sep-01 20:32N 47°33' W 122°38'0 0.0
2016-Sep-01 19:32N 47°33' W 122°38'  

Dump ship's entire track history